createdAt,value
2023-02-25T00:01:14.084Z,4.93
2023-02-25T00:03:42.372Z,6.55
2023-02-25T00:06:13.406Z,7.65
2023-02-25T00:08:44.064Z,6.57
2023-02-25T00:11:13.189Z,7.70
2023-02-25T00:13:42.463Z,7.25
2023-02-25T00:16:12.927Z,7.43
2023-02-25T00:18:44.234Z,6.18
2023-02-25T00:21:15.181Z,5.28
2023-02-25T00:23:44.230Z,6.00
2023-02-25T00:26:12.618Z,5.80
2023-02-25T00:28:41.628Z,6.85
2023-02-25T00:31:13.275Z,7.45
2023-02-25T00:33:42.109Z,5.32
2023-02-25T00:36:12.895Z,5.47
2023-02-25T00:38:41.299Z,6.20
2023-02-25T00:41:11.897Z,5.88
2023-02-25T00:43:42.106Z,4.45
2023-02-25T00:46:13.460Z,6.10
2023-02-25T00:48:42.104Z,7.30
2023-02-25T00:51:12.363Z,6.60
2023-02-25T00:53:41.200Z,6.55
2023-02-25T00:56:14.909Z,7.28
2023-02-25T00:58:43.345Z,7.30
2023-02-25T01:01:20.138Z,5.05
2023-02-25T01:03:49.169Z,6.85
2023-02-25T01:06:17.321Z,5.45
2023-02-25T01:08:45.843Z,5.10
2023-02-25T01:11:16.092Z,6.95
2023-02-25T01:13:44.497Z,5.13
2023-02-25T01:16:14.570Z,4.78
2023-02-25T01:18:44.510Z,4.80
2023-02-25T01:21:17.580Z,7.80
2023-02-25T01:23:46.172Z,6.18
2023-02-25T01:26:14.242Z,5.90
2023-02-25T01:28:42.295Z,5.63
2023-02-25T01:31:18.509Z,9.38
2023-02-25T01:33:48.432Z,5.63
2023-02-25T01:36:16.151Z,5.47
2023-02-25T01:38:44.034Z,5.90
2023-02-25T01:41:11.822Z,6.53
2023-02-25T01:43:40.958Z,7.38
2023-02-25T01:46:08.860Z,4.93
2023-02-25T01:48:40.538Z,7.07
2023-02-25T01:51:13.159Z,7.55
2023-02-25T01:53:45.386Z,4.85
2023-02-25T01:56:15.870Z,5.88
2023-02-25T01:58:44.474Z,8.55
2023-02-25T02:01:15.372Z,9.35
2023-02-25T02:03:44.389Z,4.47
2023-02-25T02:06:16.680Z,7.65
2023-02-25T02:08:46.338Z,5.20
2023-02-25T02:11:14.106Z,5.35
2023-02-25T02:13:48.193Z,5.70
2023-02-25T02:16:32.972Z,4.50
2023-02-25T02:19:15.378Z,4.75
2023-02-25T02:22:02.826Z,5.75
2023-02-25T02:24:56.804Z,6.00
2023-02-25T02:27:27.976Z,6.03
2023-02-25T02:30:19.146Z,5.40
2023-02-25T02:32:54.357Z,4.75
2023-02-25T02:35:28.599Z,6.25
2023-02-25T02:38:04.786Z,4.22
2023-02-25T02:40:44.629Z,5.85
2023-02-25T02:43:22.548Z,7.10
2023-02-25T02:45:56.897Z,6.85
2023-02-25T02:48:32.283Z,6.75
2023-02-25T02:51:03.274Z,7.03
2023-02-25T02:53:38.149Z,5.95
2023-02-25T02:56:10.117Z,5.82
2023-02-25T02:58:42.357Z,4.45
2023-02-25T03:01:17.562Z,6.30
2023-02-25T03:03:51.880Z,7.15
2023-02-25T03:06:28.396Z,6.00
2023-02-25T03:09:00.038Z,6.35
2023-02-25T03:11:27.979Z,5.93
2023-02-25T03:13:56.809Z,7.55
2023-02-25T03:16:30.877Z,4.70
2023-02-25T03:19:04.728Z,7.40
2023-02-25T03:21:39.057Z,6.95
2023-02-25T03:24:14.783Z,7.53
2023-02-25T03:26:42.765Z,5.50
2023-02-25T03:29:17.174Z,6.45
2023-02-25T03:31:54.165Z,3.72
2023-02-25T03:34:29.304Z,5.85
2023-02-25T03:37:04.523Z,5.40
2023-02-25T03:39:37.222Z,5.38
2023-02-25T03:42:11.670Z,9.43
2023-02-25T03:44:45.502Z,7.38
2023-02-25T03:47:15.309Z,4.95
2023-02-25T03:49:51.831Z,5.38
2023-02-25T03:52:24.170Z,6.85
2023-02-25T03:54:58.348Z,7.90
2023-02-25T03:57:35.937Z,3.55
2023-02-25T04:00:15.840Z,5.25
2023-02-25T04:02:45.019Z,6.80
2023-02-25T04:05:15.419Z,5.93
2023-02-25T04:07:43.193Z,5.63
2023-02-25T04:10:14.593Z,7.47
2023-02-25T04:12:42.857Z,4.70
2023-02-25T04:15:11.616Z,4.55
2023-02-25T04:17:39.495Z,4.15
2023-02-25T04:20:08.072Z,7.05
2023-02-25T04:22:37.446Z,3.53
2023-02-25T04:25:06.042Z,4.05
2023-02-25T04:27:33.916Z,5.45
2023-02-25T04:30:01.777Z,6.60
2023-02-25T04:32:29.765Z,5.13
2023-02-25T04:35:03.071Z,5.57
2023-02-25T04:37:31.519Z,4.28
2023-02-25T04:40:00.645Z,5.82
2023-02-25T04:42:28.446Z,5.43
2023-02-25T04:44:56.240Z,4.68
2023-02-25T04:47:24.092Z,5.53
2023-02-25T04:49:51.864Z,7.05
2023-02-25T04:52:19.855Z,6.28
2023-02-25T04:54:47.596Z,7.63
2023-02-25T04:57:16.854Z,4.38
2023-02-25T04:59:44.591Z,5.93
2023-02-25T05:02:12.455Z,5.07
2023-02-25T05:04:41.824Z,5.85
2023-02-25T05:07:09.958Z,6.45
2023-02-25T05:09:37.668Z,5.90
2023-02-25T05:12:05.785Z,7.85
2023-02-25T05:14:34.945Z,4.90
2023-02-25T05:17:02.693Z,6.47
2023-02-25T05:19:30.419Z,5.60
2023-02-25T05:21:58.203Z,6.63
2023-02-25T05:24:26.182Z,4.90
2023-02-25T05:26:54.200Z,5.32
2023-02-25T05:29:22.298Z,4.43
2023-02-25T05:31:52.023Z,6.90
2023-02-25T05:34:19.984Z,4.57
2023-02-25T05:36:47.788Z,5.05
2023-02-25T05:39:15.699Z,5.65
2023-02-25T05:41:43.536Z,7.03
2023-02-25T05:44:11.446Z,7.97
2023-02-25T05:46:39.250Z,3.47
2023-02-25T05:49:08.530Z,5.72
2023-02-25T05:51:36.393Z,6.47
2023-02-25T05:54:04.558Z,8.10
2023-02-25T05:56:32.557Z,5.45
2023-02-25T05:59:00.702Z,6.35
2023-02-25T06:01:29.604Z,8.82
2023-02-25T06:03:58.900Z,4.97
2023-02-25T06:06:30.958Z,5.20
2023-02-25T06:08:59.070Z,8.57
2023-02-25T06:11:28.913Z,7.43
2023-02-25T06:13:58.744Z,6.07
2023-02-25T06:16:31.876Z,4.13
2023-02-25T06:19:00.907Z,5.75
2023-02-25T06:21:30.940Z,5.10
2023-02-25T06:23:58.918Z,4.45
2023-02-25T06:26:26.818Z,6.60
2023-02-25T06:28:55.039Z,6.55
2023-02-25T06:31:24.746Z,5.97
2023-02-25T06:33:53.369Z,7.75
2023-02-25T06:36:22.067Z,5.40
2023-02-25T06:38:51.506Z,5.53
2023-02-25T06:41:22.597Z,4.75
2023-02-25T06:43:52.240Z,7.15
2023-02-25T06:46:22.305Z,4.60
2023-02-25T06:48:50.242Z,6.75
2023-02-25T06:51:18.134Z,6.07
2023-02-25T06:53:47.596Z,5.13
2023-02-25T06:56:20.162Z,5.68
2023-02-25T06:58:48.820Z,5.55
2023-02-25T07:01:17.648Z,7.15
2023-02-25T07:03:45.998Z,4.05
2023-02-25T07:06:15.850Z,4.93
2023-02-25T07:08:43.907Z,7.75
2023-02-25T07:11:15.113Z,4.43
2023-02-25T07:13:44.973Z,8.07
2023-02-25T07:16:13.508Z,6.88
2023-02-25T07:18:43.754Z,7.07
2023-02-25T07:21:12.366Z,5.72
2023-02-25T07:23:40.763Z,5.60
2023-02-25T07:26:11.837Z,6.60
2023-02-25T07:28:39.816Z,5.45
2023-02-25T07:31:13.385Z,6.35
2023-02-25T07:33:42.245Z,5.80
2023-02-25T07:36:11.021Z,6.18
2023-02-25T07:38:40.038Z,7.65
2023-02-25T07:41:09.534Z,6.93
2023-02-25T07:43:37.654Z,5.32
2023-02-25T07:46:06.085Z,5.47
2023-02-25T07:48:35.314Z,8.00
2023-02-25T07:51:06.534Z,5.18
2023-02-25T07:53:37.990Z,4.53
2023-02-25T07:56:07.597Z,7.75
2023-02-25T07:58:38.799Z,7.05
2023-02-25T08:01:09.165Z,5.68
2023-02-25T08:03:39.099Z,7.13
2023-02-25T08:06:08.969Z,7.10
2023-02-25T08:08:37.457Z,7.60
2023-02-25T08:11:09.884Z,4.80
2023-02-25T08:13:39.090Z,6.60
2023-02-25T08:16:08.109Z,5.53
2023-02-25T08:18:36.346Z,7.70
2023-02-25T08:21:05.893Z,7.75
2023-02-25T08:23:34.098Z,7.30
2023-02-25T08:26:02.519Z,6.90
2023-02-25T08:28:34.264Z,4.28
2023-02-25T08:31:05.045Z,6.30
2023-02-25T08:33:32.965Z,5.55
2023-02-25T08:36:10.082Z,6.68
2023-02-25T08:38:38.405Z,4.82
2023-02-25T08:41:07.453Z,11.38
2023-02-25T08:43:37.385Z,5.70
2023-02-25T08:46:06.691Z,5.65
2023-02-25T08:48:34.822Z,6.25
2023-02-25T08:51:08.370Z,4.72
2023-02-25T08:53:39.120Z,7.53
2023-02-25T08:56:07.930Z,5.60
2023-02-25T08:58:36.179Z,6.35
2023-02-25T09:01:09.088Z,7.63
2023-02-25T09:06:04.857Z,6.60
2023-02-25T09:08:32.690Z,7.43
2023-02-25T09:11:01.802Z,5.85
2023-02-25T09:13:29.576Z,6.10
2023-02-25T09:15:58.474Z,6.07
2023-02-25T09:18:26.998Z,4.63
2023-02-25T09:20:54.763Z,7.78
2023-02-25T09:23:22.494Z,6.32
2023-02-25T09:25:50.401Z,7.30
2023-02-25T09:28:19.567Z,5.57
2023-02-25T09:30:47.666Z,5.50
2023-02-25T09:33:16.148Z,5.13
2023-02-25T09:35:43.889Z,9.73
2023-02-25T09:38:12.650Z,6.40
2023-02-25T09:40:41.916Z,5.97
2023-02-25T09:43:26.107Z,6.55
2023-02-25T09:45:55.569Z,7.05
2023-02-25T09:48:30.288Z,6.38
2023-02-25T09:51:05.150Z,6.50
2023-02-25T09:53:38.011Z,5.32
2023-02-25T09:56:07.753Z,6.18
2023-02-25T09:58:42.538Z,4.68
2023-02-25T10:01:17.949Z,5.80
2023-02-25T10:03:53.402Z,5.43
2023-02-25T10:06:28.857Z,8.85
2023-02-25T10:09:05.864Z,7.43
2023-02-25T10:11:42.932Z,7.38
2023-02-25T10:14:25.281Z,6.45
2023-02-25T10:16:58.888Z,4.30
2023-02-25T10:19:43.480Z,5.40
2023-02-25T10:22:27.556Z,3.97
2023-02-25T10:25:00.831Z,3.45
2023-02-25T10:27:33.179Z,5.05
2023-02-25T10:30:08.016Z,4.25
2023-02-25T10:32:38.082Z,6.70
2023-02-25T10:35:17.352Z,3.40
2023-02-25T10:37:45.501Z,2.42
2023-02-25T10:40:17.545Z,1.27
2023-02-25T10:42:49.044Z,1.40
2023-02-25T10:45:23.225Z,1.25
2023-02-25T10:47:57.075Z,2.47
2023-02-25T10:50:42.766Z,2.28
2023-02-25T10:53:16.685Z,2.10
2023-02-25T10:55:52.407Z,0.77
2023-02-25T10:58:27.878Z,1.83
2023-02-25T11:01:04.265Z,1.70
2023-02-25T11:03:34.473Z,1.38
2023-02-25T11:06:11.910Z,1.88
2023-02-25T11:08:41.792Z,1.92
2023-02-25T11:11:17.704Z,2.30
2023-02-25T11:13:56.215Z,3.55
2023-02-25T11:16:25.716Z,2.67
2023-02-25T11:18:56.453Z,1.77
2023-02-25T11:21:33.477Z,1.73
2023-02-25T11:24:03.863Z,2.70
2023-02-25T11:26:34.537Z,2.20
2023-02-25T11:29:06.568Z,1.50
2023-02-25T11:31:40.571Z,3.23
2023-02-25T11:34:16.524Z,2.30
2023-02-25T11:36:44.628Z,2.75
2023-02-25T11:39:17.894Z,4.60
2023-02-25T11:41:46.613Z,2.70
2023-02-25T11:44:28.217Z,2.13
2023-02-25T11:47:06.066Z,2.25
2023-02-25T11:50:02.490Z,3.08
2023-02-25T11:52:39.916Z,3.80
2023-02-25T11:55:20.415Z,2.72
2023-02-25T11:58:05.643Z,3.05
2023-02-25T12:00:40.048Z,2.97
2023-02-25T12:03:47.347Z,4.68
2023-02-25T12:06:25.830Z,4.20
2023-02-25T12:09:21.763Z,4.05
2023-02-25T12:12:21.363Z,2.72
2023-02-25T12:15:33.924Z,3.47
2023-02-25T12:18:40.438Z,2.40
2023-02-25T12:21:40.440Z,2.25
2023-02-25T12:24:35.421Z,1.65
2023-02-25T12:27:32.007Z,2.90
2023-02-25T12:30:22.212Z,2.72
2023-02-25T12:33:00.992Z,4.18
2023-02-25T12:35:41.449Z,2.72
2023-02-25T12:38:35.144Z,3.25
2023-02-25T12:41:19.641Z,3.33
2023-02-25T12:43:52.232Z,4.22
2023-02-25T12:46:44.709Z,4.63
2023-02-25T12:49:32.185Z,4.70
2023-02-25T12:52:24.728Z,3.28
2023-02-25T12:55:30.921Z,2.90
2023-02-25T12:58:18.097Z,3.47
2023-02-25T13:01:18.785Z,4.25
2023-02-25T13:04:04.311Z,3.88
2023-02-25T13:06:54.826Z,5.68
2023-02-25T13:09:36.430Z,3.45
2023-02-25T13:12:18.491Z,6.03
2023-02-25T13:15:00.512Z,2.78
2023-02-25T13:17:44.388Z,3.88
2023-02-25T13:20:35.429Z,4.82
2023-02-25T13:23:21.793Z,3.72
2023-02-25T13:26:05.010Z,4.68
2023-02-25T13:31:27.604Z,3.97
2023-02-25T13:34:09.111Z,5.13
2023-02-25T13:37:05.413Z,3.83
2023-02-25T13:39:46.410Z,3.78
2023-02-25T13:42:32.175Z,3.58
2023-02-25T13:45:29.475Z,2.40
2023-02-25T13:48:12.491Z,3.13
2023-02-25T13:50:54.184Z,3.17
2023-02-25T13:53:34.988Z,3.28
2023-02-25T13:56:34.014Z,2.28
2023-02-25T13:59:14.900Z,4.07
2023-02-25T14:01:55.198Z,2.92
2023-02-25T14:05:04.979Z,4.72
2023-02-25T14:08:01.073Z,3.90
2023-02-25T14:10:43.324Z,4.82
2023-02-25T14:13:30.530Z,4.00
2023-02-25T14:16:08.406Z,3.83
2023-02-25T14:18:49.947Z,3.97
2023-02-25T14:21:43.395Z,2.47
2023-02-25T14:26:55.282Z,3.03
2023-02-25T14:29:33.743Z,3.20
2023-02-25T14:32:20.602Z,3.50
2023-02-25T14:35:04.076Z,1.90
2023-02-25T14:37:40.113Z,3.80
2023-02-25T14:40:19.717Z,6.13
2023-02-25T14:43:14.847Z,2.22
2023-02-25T14:45:47.336Z,2.33
2023-02-25T14:48:22.156Z,3.53
2023-02-25T14:50:54.902Z,2.40
2023-02-25T14:54:01.600Z,2.67
2023-02-25T14:56:48.938Z,5.63
2023-02-25T14:59:44.058Z,2.80
2023-02-25T15:02:28.750Z,2.30
2023-02-25T15:05:25.566Z,4.25
2023-02-25T15:08:07.954Z,3.05
2023-02-25T15:10:49.347Z,1.60
2023-02-25T15:13:52.157Z,2.33
2023-02-25T15:16:54.424Z,2.30
2023-02-25T15:19:45.832Z,2.83
2023-02-25T15:22:23.744Z,3.03
2023-02-25T15:24:53.248Z,1.77
2023-02-25T15:27:49.061Z,2.33
2023-02-25T15:30:20.802Z,2.58
2023-02-25T15:32:56.786Z,2.60
2023-02-25T15:35:45.558Z,2.80
2023-02-25T15:38:19.310Z,1.48
2023-02-25T15:40:51.242Z,3.50
2023-02-25T15:43:47.063Z,3.50
2023-02-25T15:46:41.153Z,2.70
2023-02-25T15:49:23.309Z,1.90
2023-02-25T15:51:53.043Z,2.45
2023-02-25T15:54:50.236Z,1.90
2023-02-25T15:57:37.228Z,1.33
2023-02-25T16:00:26.084Z,2.55
2023-02-25T16:03:01.674Z,2.70
2023-02-25T16:05:36.209Z,2.75
2023-02-25T16:08:15.362Z,2.63
2023-02-25T16:10:47.390Z,3.72
2023-02-25T16:13:17.999Z,3.15
2023-02-25T16:15:49.299Z,2.80
2023-02-25T16:18:26.540Z,1.85
2023-02-25T16:20:59.152Z,2.72
2023-02-25T16:23:28.436Z,2.92
2023-02-25T16:26:09.190Z,2.47
2023-02-25T16:28:45.232Z,2.20
2023-02-25T16:31:19.704Z,2.67
2023-02-25T16:33:53.791Z,1.90
2023-02-25T16:36:31.768Z,1.48
2023-02-25T16:39:03.258Z,2.55
2023-02-25T16:41:38.152Z,2.58
2023-02-25T16:44:07.151Z,2.25
2023-02-25T16:46:38.736Z,2.03
2023-02-25T16:49:11.344Z,3.03
2023-02-25T16:51:42.350Z,2.35
2023-02-25T16:54:14.440Z,2.05
2023-02-25T16:56:46.361Z,2.37
2023-02-25T16:59:21.462Z,2.83
2023-02-25T17:01:55.288Z,2.08
2023-02-25T17:04:27.628Z,4.05
2023-02-25T17:07:08.333Z,2.55
2023-02-25T17:09:36.575Z,2.90
2023-02-25T17:12:05.344Z,2.95
2023-02-25T17:14:33.369Z,3.25
2023-02-25T17:17:01.234Z,3.13
2023-02-25T17:19:30.491Z,2.72
2023-02-25T17:22:00.723Z,2.70
2023-02-25T17:24:32.436Z,2.88
2023-02-25T17:27:01.914Z,1.70
2023-02-25T17:29:36.179Z,2.55
2023-02-25T17:32:15.164Z,3.08
2023-02-25T17:34:44.882Z,3.05
2023-02-25T17:37:13.986Z,3.22
2023-02-25T17:39:44.199Z,2.65
2023-02-25T17:42:29.901Z,1.73
2023-02-25T17:44:58.272Z,3.03
2023-02-25T17:47:28.826Z,2.60
2023-02-25T17:49:59.914Z,1.88
2023-02-25T17:52:31.105Z,2.30
2023-02-25T17:55:00.764Z,1.60
2023-02-25T17:57:31.141Z,2.92
2023-02-25T18:00:05.265Z,2.83
2023-02-25T18:02:40.128Z,2.10
2023-02-25T18:05:27.144Z,3.88
2023-02-25T18:08:11.133Z,3.53
2023-02-25T18:10:56.999Z,2.78
2023-02-25T18:13:36.552Z,2.47
2023-02-25T18:16:39.260Z,3.35
2023-02-25T18:19:26.941Z,3.03
2023-02-25T18:21:56.702Z,3.45
2023-02-25T18:24:27.637Z,3.05
2023-02-25T18:27:18.827Z,4.05
2023-02-25T18:29:46.671Z,4.78
2023-02-25T18:32:14.573Z,3.67
2023-02-25T18:34:42.887Z,2.72
2023-02-25T18:37:15.285Z,3.30
2023-02-25T18:39:43.110Z,2.95
2023-02-25T18:42:14.930Z,2.83
2023-02-25T18:44:43.138Z,2.38
2023-02-25T18:47:11.023Z,2.97
2023-02-25T18:49:38.861Z,3.70
2023-02-25T18:52:12.529Z,3.65
2023-02-25T18:54:42.884Z,3.50
2023-02-25T18:57:19.071Z,3.40
2023-02-25T18:59:46.855Z,3.25
2023-02-25T19:02:26.454Z,2.08
2023-02-25T19:04:55.399Z,2.83
2023-02-25T19:07:25.991Z,4.05
2023-02-25T19:09:56.256Z,3.17
2023-02-25T19:12:25.582Z,3.13
2023-02-25T19:14:59.678Z,4.35
2023-02-25T19:17:28.415Z,4.38
2023-02-25T19:19:56.250Z,3.28
2023-02-25T19:22:24.869Z,2.92
2023-02-25T19:24:53.082Z,3.42
2023-02-25T19:27:24.427Z,6.13
2023-02-25T19:29:54.896Z,2.97
2023-02-25T19:32:22.868Z,3.13
2023-02-25T19:34:51.492Z,4.47
2023-02-25T19:37:21.168Z,3.80
2023-02-25T19:39:49.010Z,3.75
2023-02-25T19:42:16.768Z,3.50
2023-02-25T19:44:45.852Z,6.20
2023-02-25T19:47:13.655Z,4.07
2023-02-25T19:49:41.588Z,4.82
2023-02-25T19:52:09.324Z,3.92
2023-02-25T19:54:37.251Z,4.63
2023-02-25T19:57:04.983Z,4.05
2023-02-25T19:59:32.773Z,3.97
2023-02-25T20:02:01.892Z,5.43
2023-02-25T20:04:29.974Z,4.90
2023-02-25T20:06:58.729Z,5.57
2023-02-25T20:09:26.492Z,5.75
2023-02-25T20:11:54.274Z,5.05
2023-02-25T20:14:22.928Z,5.20
2023-02-25T20:16:50.939Z,4.35
2023-02-25T20:19:20.065Z,4.72
2023-02-25T20:21:48.011Z,5.95
2023-02-25T20:24:15.762Z,4.80
2023-02-25T20:26:44.979Z,4.82
2023-02-25T20:29:12.803Z,5.50
2023-02-25T20:31:40.904Z,3.97
2023-02-25T20:34:14.611Z,5.18
2023-02-25T20:36:52.651Z,4.72
2023-02-25T20:39:42.249Z,4.13
2023-02-25T20:42:13.437Z,4.00
2023-02-25T20:44:42.146Z,5.13
2023-02-25T20:47:17.798Z,5.03
2023-02-25T20:49:45.943Z,6.13
2023-02-25T20:52:16.176Z,6.97
2023-02-25T20:54:44.340Z,5.45
2023-02-25T20:57:13.753Z,5.72
2023-02-25T20:59:41.747Z,5.43
2023-02-25T21:02:10.767Z,6.60
2023-02-25T21:04:39.388Z,5.85
2023-02-25T21:07:07.826Z,5.25
2023-02-25T21:09:37.346Z,5.93
2023-02-25T21:12:05.567Z,6.10
2023-02-25T21:14:33.454Z,4.80
2023-02-25T21:17:01.228Z,4.78
2023-02-25T21:19:29.348Z,4.30
2023-02-25T21:21:57.185Z,6.05
2023-02-25T21:24:27.241Z,4.80
2023-02-25T21:26:56.448Z,5.57
2023-02-25T21:29:24.217Z,5.55
2023-02-25T21:31:52.034Z,5.18
2023-02-25T21:34:20.102Z,4.22
2023-02-25T21:36:48.387Z,7.10
2023-02-25T21:39:16.221Z,4.53
2023-02-25T21:41:44.978Z,5.50
2023-02-25T21:44:14.486Z,3.63
2023-02-25T21:46:42.619Z,6.20
2023-02-25T21:49:11.086Z,4.88
2023-02-25T21:51:40.166Z,3.85
2023-02-25T21:54:08.152Z,2.95
2023-02-25T21:56:36.075Z,4.32
2023-02-25T21:59:06.315Z,4.13
2023-02-25T22:01:38.468Z,3.85
2023-02-25T22:04:06.603Z,6.03
2023-02-25T22:06:34.796Z,2.72
2023-02-25T22:09:02.951Z,4.85
2023-02-25T22:11:32.993Z,3.38
2023-02-25T22:14:02.480Z,4.18
2023-02-25T22:16:30.533Z,4.22
2023-02-25T22:19:00.475Z,3.80
2023-02-25T22:21:29.888Z,4.57
2023-02-25T22:23:59.923Z,4.95
2023-02-25T22:26:29.731Z,4.78
2023-02-25T22:28:59.170Z,5.80
2023-02-25T22:31:28.103Z,3.20
2023-02-25T22:33:56.981Z,5.00
2023-02-25T22:36:26.925Z,3.78
2023-02-25T22:38:55.794Z,3.88
2023-02-25T22:41:25.666Z,2.85
2023-02-25T22:43:53.725Z,4.03
2023-02-25T22:46:23.390Z,2.92
2023-02-25T22:48:52.434Z,3.58
2023-02-25T22:51:21.836Z,4.75
2023-02-25T22:53:51.391Z,3.40
2023-02-25T22:56:19.530Z,3.47
2023-02-25T22:58:47.368Z,3.15
2023-02-25T23:01:17.064Z,2.80
2023-02-25T23:03:44.918Z,4.15
2023-02-25T23:06:13.569Z,2.63
2023-02-25T23:08:41.393Z,4.25
2023-02-25T23:11:13.102Z,3.58
2023-02-25T23:13:46.100Z,3.65
2023-02-25T23:18:42.464Z,2.08
2023-02-25T23:21:16.148Z,2.47
2023-02-25T23:23:45.136Z,3.33
2023-02-25T23:26:16.082Z,2.90
2023-02-25T23:28:44.013Z,3.20
2023-02-25T23:31:19.187Z,4.78
2023-02-25T23:33:47.211Z,4.65
2023-02-25T23:36:15.135Z,2.38
2023-02-25T23:38:42.954Z,3.13
2023-02-25T23:41:14.986Z,3.55
2023-02-25T23:43:42.830Z,5.13
2023-02-25T23:46:10.746Z,4.55
2023-02-25T23:48:38.598Z,3.95
2023-02-25T23:51:07.375Z,1.80
2023-02-25T23:53:35.954Z,3.63
2023-02-25T23:56:08.418Z,3.40
2023-02-25T23:58:38.715Z,3.75
